Time;durP1;ratioP1;P1;durP2;ratioP2;P2;SDS_P1;SDS_P2;PMS_P1;PMS_P2;Temp;Humidity;BMP_temperature;BMP_pressure;BME280_temperature;BME280_humidity;BME280_pressure;Samples;Min_cycle;Max_cycle;Signal;HPM_P1;HPM_P2
2023/05/14 00:01:12;;;;;;;7.47;5.30;;;;;;;10.04;100.00;99126.88;4500857;31;20119;-64
2023/05/14 00:03:39;;;;;;;11.27;6.80;;;;;;;9.94;100.00;99124.16;4500605;31;20473;-64
2023/05/14 00:06:08;;;;;;;10.30;6.25;;;;;;;9.88;100.00;99113.34;4500753;31;20118;-64
2023/05/14 00:08:35;;;;;;;11.75;6.53;;;;;;;9.74;100.00;99110.06;4500752;31;20104;-65
2023/05/14 00:11:02;;;;;;;10.70;6.68;;;;;;;9.71;100.00;99114.72;4500790;31;20591;-64
2023/05/14 00:13:29;;;;;;;11.88;6.65;;;;;;;9.64;100.00;99106.50;4487638;31;20116;-65
2023/05/14 00:15:56;;;;;;;8.60;5.60;;;;;;;9.69;100.00;99101.75;4495169;31;20448;-64
2023/05/14 00:18:24;;;;;;;11.88;6.35;;;;;;;9.67;100.00;99101.03;4500818;31;20156;-64
2023/05/14 00:20:53;;;;;;;11.88;6.62;;;;;;;9.67;100.00;99108.06;4500628;31;20129;-64
2023/05/14 00:23:21;;;;;;;15.77;6.75;;;;;;;9.64;100.00;99098.66;4500376;31;20515;-64
2023/05/14 00:25:49;;;;;;;9.40;6.45;;;;;;;9.57;100.00;99100.94;4500433;31;20487;-64
2023/05/14 00:28:16;;;;;;;11.38;7.22;;;;;;;9.56;100.00;99101.06;4500653;31;20507;-64
2023/05/14 00:30:44;;;;;;;10.32;6.25;;;;;;;9.57;100.00;99093.09;4500801;31;20153;-64
2023/05/14 00:33:11;;;;;;;10.55;6.37;;;;;;;9.58;100.00;99073.00;4500524;31;20151;-64
2023/05/14 00:35:38;;;;;;;6.53;4.55;;;;;;;9.58;100.00;99084.31;4500337;31;20122;-65
2023/05/14 00:38:05;;;;;;;12.57;6.87;;;;;;;9.61;100.00;99085.84;4500484;31;20162;-64
2023/05/14 00:40:33;;;;;;;8.55;6.32;;;;;;;9.54;100.00;99082.06;4500461;31;20083;-64
2023/05/14 00:43:00;;;;;;;9.80;6.18;;;;;;;9.51;100.00;99082.31;4500708;31;20118;-64
2023/05/14 00:45:28;;;;;;;12.13;7.28;;;;;;;9.46;100.00;99074.00;4500379;31;20099;-65
2023/05/14 00:47:55;;;;;;;11.45;7.12;;;;;;;9.40;100.00;99077.91;4500358;31;20097;-65
2023/05/14 00:50:22;;;;;;;9.93;6.78;;;;;;;9.35;100.00;99072.22;4500348;31;20096;-65
2023/05/14 00:52:50;;;;;;;14.30;7.28;;;;;;;9.39;100.00;99069.25;4500084;31;20126;-64
2023/05/14 00:55:18;;;;;;;10.85;6.65;;;;;;;9.38;100.00;99075.44;4500148;31;20087;-64
2023/05/14 00:57:45;;;;;;;14.70;7.12;;;;;;;9.34;100.00;99066.19;4500205;31;20185;-64
2023/05/14 01:00:12;;;;;;;10.27;6.50;;;;;;;9.29;100.00;99065.69;4498906;31;20171;-64
2023/05/14 01:02:40;;;;;;;10.32;6.93;;;;;;;9.28;100.00;99055.37;4501470;31;20508;-64
2023/05/14 01:05:08;;;;;;;13.98;6.70;;;;;;;9.25;100.00;99056.47;4500490;31;20108;-64
2023/05/14 01:07:39;;;;;;;11.12;6.47;;;;;;;9.23;100.00;99056.59;4500823;31;20100;-64
2023/05/14 01:10:18;;;;;;;13.23;6.62;;;;;;;9.22;100.00;99051.47;4500806;31;20441;-64
2023/05/14 01:13:12;;;;;;;10.90;7.20;;;;;;;9.29;100.00;99046.56;4492446;31;20266;-64
2023/05/14 01:15:41;;;;;;;11.10;5.97;;;;;;;9.23;100.00;99055.72;4483718;32;20562;-64
2023/05/14 01:18:10;;;;;;;10.82;6.45;;;;;;;9.25;100.00;99053.84;4485119;32;20583;-64
2023/05/14 01:20:37;;;;;;;11.55;6.05;;;;;;;9.25;100.00;99043.38;4486199;31;20113;-64
2023/05/14 01:23:07;;;;;;;9.65;6.72;;;;;;;9.22;100.00;99046.25;4486113;32;20097;-64
2023/05/14 01:25:34;;;;;;;11.45;6.70;;;;;;;9.23;100.00;99047.87;4486128;31;20412;-64
2023/05/14 01:28:10;;;;;;;10.57;6.12;;;;;;;9.23;100.00;99047.87;4486582;32;20168;-64
2023/05/14 01:30:57;;;;;;;8.48;5.97;;;;;;;9.25;100.00;99035.53;4485216;32;20104;-64
2023/05/14 01:33:26;;;;;;;8.73;5.75;;;;;;;9.24;100.00;99031.25;4485433;32;20157;-64
2023/05/14 01:35:54;;;;;;;8.82;6.28;;;;;;;9.22;100.00;99034.00;4484715;32;20108;-64
2023/05/14 01:38:22;;;;;;;9.20;6.03;;;;;;;9.19;100.00;99023.78;4484840;32;20120;-64
2023/05/14 01:40:49;;;;;;;11.52;7.32;;;;;;;9.22;100.00;99026.16;4486054;31;20533;-64
2023/05/14 01:43:17;;;;;;;10.13;6.30;;;;;;;9.16;100.00;99008.34;4484928;32;20096;-64
2023/05/14 01:45:45;;;;;;;8.75;6.18;;;;;;;9.14;100.00;99007.63;4485953;31;20163;-64
2023/05/14 01:48:13;;;;;;;8.35;5.65;;;;;;;9.16;100.00;99010.97;4486012;31;20096;-64
2023/05/14 01:50:40;;;;;;;10.13;6.37;;;;;;;9.20;100.00;98998.47;4485907;31;20119;-64
2023/05/14 01:53:08;;;;;;;10.75;5.97;;;;;;;9.16;100.00;99003.13;4485742;32;20096;-64
2023/05/14 01:55:35;;;;;;;9.98;6.47;;;;;;;9.23;100.00;98998.22;4485836;31;20506;-64
2023/05/14 01:58:03;;;;;;;10.02;6.30;;;;;;;9.20;100.00;98994.06;4486187;31;20131;-64
2023/05/14 02:00:30;;;;;;;9.35;5.87;;;;;;;9.25;100.00;98993.72;4485820;31;20105;-64
2023/05/14 02:02:58;;;;;;;7.32;5.47;;;;;;;9.27;100.00;99007.50;4485884;32;20088;-64
2023/05/14 02:05:25;;;;;;;11.02;6.25;;;;;;;9.20;100.00;99001.91;4485668;31;20164;-64
2023/05/14 02:07:53;;;;;;;7.50;5.72;;;;;;;9.26;100.00;98995.34;4485872;31;20525;-64
2023/05/14 02:10:20;;;;;;;9.40;5.65;;;;;;;9.27;100.00;99001.44;4485691;31;20089;-64
2023/05/14 02:12:48;;;;;;;9.88;5.93;;;;;;;9.27;100.00;98996.22;4485478;31;20104;-64
2023/05/14 02:15:15;;;;;;;9.15;5.37;;;;;;;9.33;100.00;98996.53;4491729;31;20151;-64
2023/05/14 02:17:44;;;;;;;10.30;6.53;;;;;;;9.35;100.00;99002.47;4501690;31;20119;-65
2023/05/14 02:20:12;;;;;;;9.85;6.20;;;;;;;9.35;100.00;98999.84;4501592;31;20096;-64
2023/05/14 02:22:44;;;;;;;11.98;6.18;;;;;;;9.46;100.00;99000.75;4501457;31;20089;-64
2023/05/14 02:25:11;;;;;;;8.63;5.90;;;;;;;9.44;100.00;98998.28;4501560;31;20156;-64
2023/05/14 02:27:39;;;;;;;9.07;5.20;;;;;;;9.48;100.00;98993.63;4501218;31;20091;-64
2023/05/14 02:30:07;;;;;;;11.23;5.82;;;;;;;9.40;100.00;98992.47;4501504;31;20092;-64
2023/05/14 02:32:35;;;;;;;9.50;5.93;;;;;;;9.42;100.00;98992.34;4501849;31;20155;-64
2023/05/14 02:35:02;;;;;;;10.98;5.87;;;;;;;9.38;100.00;98989.13;4501279;31;20091;-64
2023/05/14 02:37:29;;;;;;;10.05;5.47;;;;;;;9.36;100.00;98996.28;4501666;31;20100;-64
2023/05/14 02:39:56;;;;;;;10.88;5.93;;;;;;;9.37;100.00;98986.66;4501455;31;20075;-64
2023/05/14 02:42:23;;;;;;;9.02;5.28;;;;;;;9.38;100.00;98986.53;4500461;31;20104;-65
2023/05/14 02:44:51;;;;;;;9.63;5.18;;;;;;;9.47;100.00;98984.12;4501282;31;20099;-65
2023/05/14 02:47:18;;;;;;;10.43;5.40;;;;;;;9.43;100.00;98974.88;4501245;31;20141;-64
2023/05/14 02:49:45;;;;;;;10.10;5.75;;;;;;;9.47;100.00;98984.94;4501445;31;20088;-64
2023/05/14 02:52:12;;;;;;;7.55;5.57;;;;;;;9.45;100.00;98984.25;4500955;31;20501;-64
2023/05/14 02:54:40;;;;;;;6.28;4.85;;;;;;;9.47;100.00;98989.38;4501319;31;20088;-64
2023/05/14 02:57:07;;;;;;;10.95;5.47;;;;;;;9.49;100.00;98982.22;4500129;31;20084;-64
2023/05/14 02:59:35;;;;;;;8.02;5.40;;;;;;;9.47;100.00;98986.75;4501318;31;20122;-64
2023/05/14 03:02:03;;;;;;;9.15;5.60;;;;;;;9.40;100.00;98974.19;4501185;31;20172;-64
2023/05/14 03:04:31;;;;;;;8.90;6.07;;;;;;;9.39;100.00;98974.31;4501097;31;20091;-64
2023/05/14 03:06:58;;;;;;;9.70;6.07;;;;;;;9.31;100.00;98967.06;4501133;31;20387;-64
2023/05/14 03:09:25;;;;;;;8.75;6.30;;;;;;;9.28;100.00;98977.78;4501275;31;20156;-64
2023/05/14 03:11:53;;;;;;;10.52;5.85;;;;;;;9.23;100.00;98972.94;4498541;31;20409;-64
2023/05/14 03:14:21;;;;;;;8.00;5.25;;;;;;;9.23;100.00;98974.69;4484306;31;20533;-64
2023/05/14 03:16:48;;;;;;;10.07;6.30;;;;;;;9.22;100.00;98980.91;4500966;31;20616;-64
2023/05/14 03:19:16;;;;;;;9.85;6.15;;;;;;;9.18;100.00;98979.47;4501386;31;20122;-64
2023/05/14 03:21:44;;;;;;;8.05;6.22;;;;;;;9.24;100.00;98976.38;4501123;31;20092;-64
2023/05/14 03:24:11;;;;;;;8.63;5.80;;;;;;;9.26;100.00;98968.41;4500014;31;20152;-64
2023/05/14 03:26:39;;;;;;;8.82;5.93;;;;;;;9.19;100.00;98962.81;4501088;31;20170;-64
2023/05/14 03:29:06;;;;;;;8.82;5.85;;;;;;;9.22;100.00;98962.59;4501021;31;20092;-64
2023/05/14 03:31:33;;;;;;;9.52;5.97;;;;;;;9.27;100.00;98959.59;4501371;31;20136;-64
2023/05/14 03:34:01;;;;;;;8.93;6.00;;;;;;;9.28;100.00;98964.72;4501122;31;20112;-64
2023/05/14 03:36:28;;;;;;;19.98;6.15;;;;;;;9.29;100.00;98968.97;4501016;31;20130;-64
2023/05/14 03:38:55;;;;;;;9.25;5.00;;;;;;;9.36;100.00;98971.94;4500970;31;20111;-64
2023/05/14 03:41:22;;;;;;;9.65;5.15;;;;;;;9.37;100.00;98965.72;4500902;31;20096;-64
2023/05/14 03:43:50;;;;;;;8.00;5.15;;;;;;;9.39;100.00;98967.28;4501016;31;20445;-64
2023/05/14 03:46:17;;;;;;;8.00;4.87;;;;;;;9.42;100.00;98966.19;4501123;31;20196;-64
2023/05/14 03:48:44;;;;;;;9.10;4.70;;;;;;;9.40;100.00;98961.09;4499971;31;20165;-64
2023/05/14 03:51:12;;;;;;;6.87;4.43;;;;;;;9.40;100.00;98949.78;4501193;31;20151;-64
2023/05/14 03:53:40;;;;;;;9.90;5.60;;;;;;;9.44;100.00;98948.59;4500615;31;20171;-64
2023/05/14 03:56:07;;;;;;;7.22;4.95;;;;;;;9.48;100.00;98952.62;4501027;31;20118;-64
2023/05/14 03:58:35;;;;;;;5.62;4.03;;;;;;;9.48;100.00;98951.78;4500992;31;20122;-64
2023/05/14 04:01:02;;;;;;;9.27;5.07;;;;;;;9.52;100.00;98958.41;4501044;31;20100;-64
2023/05/14 04:03:29;;;;;;;7.45;4.57;;;;;;;9.56;100.00;98967.69;4501119;31;20118;-64
2023/05/14 04:05:57;;;;;;;8.95;5.47;;;;;;;9.61;100.00;98959.47;4500486;31;20151;-64
2023/05/14 04:08:24;;;;;;;7.75;4.80;;;;;;;9.60;100.00;98956.03;4500812;31;20144;-64
2023/05/14 04:10:52;;;;;;;13.48;4.55;;;;;;;9.58;100.00;98964.00;4500966;31;20104;-64
2023/05/14 04:13:21;;;;;;;11.30;4.32;;;;;;;9.58;100.00;98961.38;4488607;31;20096;-64
2023/05/14 04:15:50;;;;;;;5.80;4.20;;;;;;;9.61;100.00;98946.38;4494690;31;20182;-64
2023/05/14 04:18:17;;;;;;;5.75;4.30;;;;;;;9.59;100.00;98956.97;4500646;31;20088;-64
2023/05/14 04:20:44;;;;;;;7.50;4.75;;;;;;;9.59;100.00;98951.75;4500763;31;20100;-64
2023/05/14 04:23:11;;;;;;;6.30;4.53;;;;;;;9.62;100.00;98961.94;4500581;31;20159;-64
2023/05/14 04:25:39;;;;;;;6.72;4.37;;;;;;;9.64;100.00;98964.44;4500568;31;20097;-65
2023/05/14 04:28:06;;;;;;;7.57;4.37;;;;;;;9.59;100.00;98951.75;4500561;31;20088;-64
2023/05/14 04:30:33;;;;;;;8.18;4.15;;;;;;;9.55;100.00;98956.41;4500488;31;20431;-64
2023/05/14 04:33:01;;;;;;;10.18;4.40;;;;;;;9.62;100.00;98951.50;4500474;31;20096;-64
2023/05/14 04:35:28;;;;;;;6.50;4.62;;;;;;;9.63;100.00;98945.31;4500148;31;20091;-64
2023/05/14 04:37:55;;;;;;;6.70;4.45;;;;;;;9.62;100.00;98959.34;4500430;31;20107;-64
2023/05/14 04:40:23;;;;;;;8.95;4.93;;;;;;;9.60;100.00;98958.63;4500791;31;20096;-64
2023/05/14 04:42:51;;;;;;;9.18;4.70;;;;;;;9.63;100.00;98960.16;4500479;31;20118;-64
2023/05/14 04:45:18;;;;;;;8.63;4.10;;;;;;;9.66;100.00;98950.28;4500419;31;20802;-64
2023/05/14 04:47:45;;;;;;;7.82;4.28;;;;;;;9.68;100.00;98958.00;4500313;31;20155;-64
2023/05/14 04:50:13;;;;;;;6.62;4.45;;;;;;;9.59;100.00;98962.19;4500321;31;20089;-64
2023/05/14 04:52:40;;;;;;;8.70;4.20;;;;;;;9.69;100.00;98963.13;4500055;31;20166;-64
2023/05/14 04:55:10;;;;;;;7.93;4.55;;;;;;;9.68;100.00;98958.81;4500098;31;20085;-65
2023/05/14 04:57:37;;;;;;;7.18;4.80;;;;;;;9.71;100.00;98955.13;4500243;31;20080;-64
2023/05/14 05:00:05;;;;;;;8.23;4.35;;;;;;;9.65;100.00;98943.38;4500138;31;20159;-64
2023/05/14 05:02:33;;;;;;;7.43;4.78;;;;;;;9.73;100.00;98945.38;4500246;31;20130;-64
2023/05/14 05:05:02;;;;;;;5.43;3.78;;;;;;;9.75;100.00;98948.69;4498549;31;20099;-64
2023/05/14 05:07:29;;;;;;;7.57;4.75;;;;;;;9.67;100.00;98948.50;4500196;31;20096;-65
2023/05/14 05:09:57;;;;;;;7.60;4.72;;;;;;;9.71;100.00;98942.06;4499910;31;20394;-64
2023/05/14 05:12:28;;;;;;;6.10;4.53;;;;;;;9.66;100.00;98945.06;4493979;31;20453;-64
2023/05/14 05:14:58;;;;;;;6.73;4.27;;;;;;;9.68;100.00;98947.53;4488187;31;20100;-64
2023/05/14 05:17:25;;;;;;;6.62;4.60;;;;;;;9.63;100.00;98939.22;4499898;31;20616;-64
2023/05/14 05:19:52;;;;;;;7.55;4.87;;;;;;;9.65;100.00;98951.22;4499828;31;20401;-64
2023/05/14 05:22:19;;;;;;;9.55;5.05;;;;;;;9.70;100.00;98943.00;4499779;31;20163;-64
2023/05/14 05:24:47;;;;;;;10.65;4.68;;;;;;;9.72;100.00;98943.69;4499776;31;20088;-64
2023/05/14 05:27:15;;;;;;;8.48;4.12;;;;;;;9.74;100.00;98941.81;4500042;31;20092;-64
2023/05/14 05:29:43;;;;;;;8.45;4.40;;;;;;;9.81;100.00;98937.72;4499676;31;20099;-64
2023/05/14 05:32:10;;;;;;;8.77;4.65;;;;;;;9.79;100.00;98930.94;4499871;31;20118;-64
2023/05/14 05:34:37;;;;;;;7.45;4.87;;;;;;;9.81;100.00;98931.63;4498197;31;20096;-64
2023/05/14 05:37:05;;;;;;;6.78;4.28;;;;;;;9.82;100.00;98936.75;4498417;31;20083;-64
2023/05/14 05:39:33;;;;;;;7.22;4.57;;;;;;;9.96;100.00;98940.81;4499514;31;20117;-64
2023/05/14 05:42:01;;;;;;;5.62;4.12;;;;;;;9.91;100.00;98935.16;4499512;31;20164;-65
2023/05/14 05:44:29;;;;;;;7.30;4.10;;;;;;;9.98;100.00;98931.06;4499314;31;20151;-65
2023/05/14 05:46:56;;;;;;;11.73;4.43;;;;;;;9.98;100.00;98944.16;4499689;31;20445;-65
2023/05/14 05:49:24;;;;;;;7.22;4.25;;;;;;;10.07;100.00;98942.56;4501663;31;20126;-64
2023/05/14 05:51:51;;;;;;;7.40;4.18;;;;;;;10.00;100.00;98946.66;4501525;31;20126;-65
2023/05/14 05:54:18;;;;;;;10.88;4.20;;;;;;;9.99;100.00;98943.19;4501709;31;20115;-64
2023/05/14 05:56:45;;;;;;;10.30;4.20;;;;;;;9.96;100.00;98946.06;4501681;31;20533;-64
2023/05/14 05:59:12;;;;;;;9.07;4.65;;;;;;;9.99;100.00;98956.25;4501705;31;20212;-64
2023/05/14 06:01:40;;;;;;;7.43;4.43;;;;;;;9.84;100.00;98953.16;4501964;31;20123;-64
2023/05/14 06:04:08;;;;;;;8.85;4.85;;;;;;;9.89;100.00;98950.97;4501658;31;20108;-64
2023/05/14 06:06:36;;;;;;;8.05;4.70;;;;;;;9.91;100.00;98956.09;4501719;31;20466;-65
2023/05/14 06:09:03;;;;;;;6.78;4.80;;;;;;;9.98;100.00;98965.09;4501552;31;20160;-64
2023/05/14 06:11:30;;;;;;;8.18;5.37;;;;;;;10.04;100.00;98964.56;4501826;31;20092;-64
2023/05/14 06:13:57;;;;;;;7.30;4.85;;;;;;;10.04;100.00;98956.72;4485746;32;20172;-64
2023/05/14 06:16:25;;;;;;;9.70;5.35;;;;;;;9.99;100.00;98966.72;4499411;31;20132;-64
2023/05/14 06:18:53;;;;;;;7.62;5.07;;;;;;;9.83;100.00;98969.81;4501536;31;20453;-65
2023/05/14 06:21:20;;;;;;;9.77;4.78;;;;;;;9.85;100.00;98960.03;4501696;31;20188;-64
2023/05/14 06:23:47;;;;;;;8.07;5.12;;;;;;;9.95;100.00;98965.34;4500220;31;20112;-64
2023/05/14 06:26:15;;;;;;;10.52;4.87;;;;;;;9.85;100.00;98959.22;4501530;31;20091;-64
2023/05/14 06:28:42;;;;;;;8.23;5.57;;;;;;;9.93;100.00;98962.00;4501560;31;20410;-64
2023/05/14 06:31:09;;;;;;;8.07;5.12;;;;;;;9.72;100.00;98955.00;4501488;31;20118;-64
2023/05/14 06:33:36;;;;;;;10.88;5.95;;;;;;;9.74;100.00;98955.69;4501428;31;20151;-64
2023/05/14 06:36:04;;;;;;;10.52;5.78;;;;;;;9.76;100.00;98953.81;4501337;31;20549;-64
2023/05/14 06:38:31;;;;;;;9.15;5.15;;;;;;;9.79;100.00;98955.31;4501476;31;20150;-64
2023/05/14 06:40:59;;;;;;;7.62;5.75;;;;;;;9.82;100.00;98949.00;4501306;31;20155;-64
2023/05/14 06:43:26;;;;;;;10.30;5.62;;;;;;;9.73;100.00;98940.13;4501470;31;20166;-64
2023/05/14 06:45:53;;;;;;;8.30;5.70;;;;;;;9.76;100.00;98945.97;4501170;31;20122;-64
2023/05/14 06:48:21;;;;;;;11.75;5.90;;;;;;;9.71;100.00;98932.41;4501549;31;20148;-64
2023/05/14 06:50:49;;;;;;;10.30;6.07;;;;;;;9.77;100.00;98936.31;4501397;31;20092;-64
2023/05/14 06:53:16;;;;;;;9.70;5.50;;;;;;;9.72;100.00;98941.94;4501085;31;20088;-64
2023/05/14 06:55:43;;;;;;;8.05;5.25;;;;;;;9.84;100.00;98944.47;4501121;31;20092;-64
2023/05/14 06:58:11;;;;;;;8.00;5.72;;;;;;;9.79;100.00;98931.78;4500059;31;20096;-64
2023/05/14 07:00:38;;;;;;;8.73;5.18;;;;;;;9.86;100.00;98934.72;4501406;31;20472;-64
2023/05/14 07:03:06;;;;;;;8.57;5.43;;;;;;;9.91;100.00;98932.53;4501605;31;20121;-64
2023/05/14 07:05:33;;;;;;;10.82;5.62;;;;;;;9.90;100.00;98925.63;4501394;31;20810;-64
2023/05/14 07:08:00;;;;;;;9.80;5.95;;;;;;;9.91;100.00;98916.84;4500133;31;20126;-64
2023/05/14 07:10:27;;;;;;;8.25;5.70;;;;;;;10.19;100.00;98914.47;4501495;31;20100;-64
2023/05/14 07:12:55;;;;;;;9.77;5.80;;;;;;;10.19;100.00;98915.34;4492318;31;20116;-64
2023/05/14 07:15:22;;;;;;;10.25;7.00;;;;;;;10.27;100.00;98914.69;4492151;31;20151;-64
2023/05/14 07:17:50;;;;;;;9.50;5.90;;;;;;;10.42;100.00;98916.00;4501234;31;20081;-64
2023/05/14 07:20:17;;;;;;;10.05;5.45;;;;;;;10.38;100.00;98911.97;4493972;31;20130;-65
2023/05/14 07:22:44;;;;;;;8.82;5.37;;;;;;;10.49;100.00;98903.19;4485286;32;20099;-64
2023/05/14 07:25:11;;;;;;;7.30;5.50;;;;;;;10.46;100.00;98906.06;4485035;32;20076;-64
2023/05/14 07:27:38;;;;;;;8.27;5.55;;;;;;;10.54;100.00;98905.44;4485252;32;20493;-64
2023/05/14 07:30:06;;;;;;;9.73;5.25;;;;;;;10.70;100.00;98908.34;4485246;32;20155;-64
2023/05/14 07:32:34;;;;;;;9.88;5.22;;;;;;;10.95;100.00;98907.03;4485212;31;20093;-64
2023/05/14 07:35:01;;;;;;;8.13;5.37;;;;;;;11.13;100.00;98907.19;4484985;31;20163;-64
2023/05/14 07:37:28;;;;;;;7.80;5.72;;;;;;;11.22;100.00;98904.69;4485280;32;20096;-65
2023/05/14 07:39:56;;;;;;;8.50;5.25;;;;;;;11.12;100.00;98902.06;4485184;32;20535;-64
2023/05/14 07:42:23;;;;;;;9.65;5.35;;;;;;;11.33;100.00;98908.00;4485203;32;20144;-64
2023/05/14 07:45:03;;;;;;;10.32;5.28;;;;;;;11.23;100.00;98885.38;4485215;32;20135;-65
2023/05/14 07:47:30;;;;;;;9.40;5.53;;;;;;;11.31;100.00;98888.13;4485109;31;20126;-64
2023/05/14 07:49:58;;;;;;;9.60;5.55;;;;;;;11.50;100.00;98901.22;4478790;32;208027;-64
2023/05/14 07:52:25;;;;;;;8.80;5.65;;;;;;;11.51;100.00;98892.41;4485222;32;20171;-64
2023/05/14 07:54:52;;;;;;;11.05;5.47;;;;;;;11.55;100.00;98892.94;4484964;32;20096;-64
2023/05/14 07:57:20;;;;;;;11.60;5.37;;;;;;;11.61;100.00;98886.31;4485150;32;20149;-65
2023/05/14 07:59:48;;;;;;;11.45;6.37;;;;;;;11.65;100.00;98887.69;4485171;31;20089;-64
2023/05/14 08:02:16;;;;;;;7.30;5.10;;;;;;;11.56;100.00;98883.28;4485170;32;20085;-64
2023/05/14 08:04:45;;;;;;;11.65;6.00;;;;;;;11.67;100.00;98886.59;4485168;32;20087;-64
2023/05/14 08:07:12;;;;;;;8.23;5.25;;;;;;;11.54;100.00;98881.63;4484987;32;20088;-64
2023/05/14 08:09:39;;;;;;;8.27;5.57;;;;;;;11.57;100.00;98882.28;4485260;32;20119;-64
2023/05/14 08:12:07;;;;;;;10.25;5.68;;;;;;;11.59;100.00;98877.75;4487954;31;20088;-65
2023/05/14 08:14:34;;;;;;;7.97;5.62;;;;;;;11.53;100.00;98858.97;4499280;31;20183;-65
2023/05/14 08:17:02;;;;;;;10.10;5.75;;;;;;;11.44;100.00;98859.81;4484836;31;20104;-65
2023/05/14 08:19:30;;;;;;;9.40;5.93;;;;;;;11.79;100.00;98858.34;4483658;32;20192;-64
2023/05/14 08:21:57;;;;;;;7.53;5.18;;;;;;;11.68;100.00;98850.66;4484632;32;20088;-64
2023/05/14 08:24:24;;;;;;;9.43;5.97;;;;;;;11.66;100.00;98857.87;4485089;32;20149;-64
2023/05/14 08:26:52;;;;;;;10.52;7.47;;;;;;;11.85;100.00;98852.56;4484509;31;20118;-64
2023/05/14 08:29:19;;;;;;;8.93;6.25;;;;;;;11.66;100.00;98848.19;4485270;31;20176;-64
2023/05/14 08:31:48;;;;;;;11.88;6.43;;;;;;;11.71;100.00;98839.88;4484742;31;20114;-64
2023/05/14 08:34:16;;;;;;;8.77;6.10;;;;;;;11.87;100.00;98841.91;4484710;31;20148;-64
2023/05/14 08:36:43;;;;;;;9.30;5.97;;;;;;;11.87;100.00;98839.28;4484489;31;20127;-65
2023/05/14 08:39:10;;;;;;;11.40;6.43;;;;;;;11.84;100.00;98835.16;4484784;31;20171;-64
2023/05/14 08:41:38;;;;;;;10.18;6.37;;;;;;;11.85;100.00;98831.56;4484672;31;20587;-65
2023/05/14 08:44:11;;;;;;;9.68;6.05;;;;;;;12.07;100.00;98834.81;4484667;31;20129;-65
2023/05/14 08:46:39;;;;;;;8.43;6.30;;;;;;;11.98;100.00;98828.63;4484545;31;20235;-65
2023/05/14 08:49:40;;;;;;;11.05;7.05;;;;;;;12.20;100.00;98837.94;4484636;31;20161;-65
2023/05/14 08:52:09;;;;;;;9.27;5.97;;;;;;;12.18;100.00;98837.25;4484260;31;20558;-65
2023/05/14 08:54:36;;;;;;;10.05;6.15;;;;;;;12.11;100.00;98836.16;4484616;31;20537;-64
2023/05/14 08:57:04;;;;;;;13.07;6.05;;;;;;;12.29;100.00;98833.59;4484360;31;20092;-65
2023/05/14 08:59:31;;;;;;;13.73;6.82;;;;;;;12.11;100.00;98838.78;4483518;32;20168;-65
2023/05/14 09:02:01;;;;;;;9.80;6.22;;;;;;;12.11;100.00;98838.78;4482916;32;20172;-65
2023/05/14 09:04:28;;;;;;;11.20;6.22;;;;;;;11.97;100.00;98834.03;4483182;32;20092;-64
2023/05/14 09:06:56;;;;;;;9.02;6.15;;;;;;;11.87;100.00;98840.09;4482820;32;20126;-65
2023/05/14 09:09:23;;;;;;;12.07;6.10;;;;;;;12.06;100.00;98839.22;4470145;32;20108;-64
2023/05/14 09:11:51;;;;;;;9.18;6.22;;;;;;;12.05;100.00;98831.50;4485298;31;20104;-64
2023/05/14 09:14:19;;;;;;;11.25;6.03;;;;;;;12.11;100.00;98827.47;4500356;31;20160;-64
2023/05/14 09:16:48;;;;;;;12.10;6.20;;;;;;;11.92;100.00;98830.97;4484241;31;20099;-65
2023/05/14 09:19:17;;;;;;;9.43;6.12;;;;;;;11.70;100.00;98835.59;4484344;31;20172;-64
2023/05/14 09:21:47;;;;;;;8.73;6.30;;;;;;;11.69;100.00;98823.47;4484095;31;20084;-65
2023/05/14 09:24:22;;;;;;;9.55;6.43;;;;;;;11.76;100.00;98821.06;4485661;31;20112;-65
2023/05/14 09:26:55;;;;;;;11.88;6.60;;;;;;;11.83;100.00;98815.09;4485985;31;20092;-65
2023/05/14 09:29:26;;;;;;;10.63;6.53;;;;;;;11.89;100.00;98805.84;4486241;31;20106;-65
2023/05/14 09:31:55;;;;;;;9.98;6.97;;;;;;;11.98;100.00;98809.44;4484825;32;20115;-65
2023/05/14 09:34:28;;;;;;;14.13;6.90;;;;;;;12.01;100.00;98802.09;4485921;31;20119;-65
2023/05/14 09:37:01;;;;;;;10.13;6.78;;;;;;;11.98;100.00;98805.00;4484771;32;20513;-65
2023/05/14 09:39:28;;;;;;;12.27;7.62;;;;;;;11.82;100.00;98799.50;4486213;31;20097;-65
2023/05/14 09:41:56;;;;;;;13.30;6.78;;;;;;;11.77;100.00;98789.44;4486016;31;20096;-65
2023/05/14 09:44:24;;;;;;;12.68;6.93;;;;;;;11.70;100.00;98785.72;4486011;31;20126;-64
2023/05/14 09:46:52;;;;;;;12.02;7.43;;;;;;;11.62;100.00;98785.62;4486037;31;20116;-65
2023/05/14 09:49:20;;;;;;;13.48;7.40;;;;;;;11.76;100.00;98785.16;4486090;31;20476;-65
2023/05/14 09:51:50;;;;;;;10.68;7.15;;;;;;;11.68;100.00;98787.69;4485645;31;20089;-65
2023/05/14 09:54:17;;;;;;;13.62;7.30;;;;;;;11.64;100.00;98783.69;4485866;31;20580;-65
2023/05/14 09:56:44;;;;;;;12.05;7.55;;;;;;;11.70;100.00;98777.84;4485904;32;20167;-64
2023/05/14 09:59:14;;;;;;;14.43;8.52;;;;;;;11.67;100.00;98760.63;4485970;31;20597;-65
2023/05/14 10:01:42;;;;;;;14.13;7.62;;;;;;;11.65;100.00;98751.22;4485929;32;20548;-65
2023/05/14 10:04:10;;;;;;;12.32;8.10;;;;;;;11.67;100.00;98744.88;4485915;31;20089;-65
2023/05/14 10:06:38;;;;;;;12.37;7.57;;;;;;;11.75;100.00;98741.53;4484509;32;20115;-64
2023/05/14 10:09:12;;;;;;;15.27;8.00;;;;;;;11.74;100.00;98731.19;4485913;31;20163;-64
2023/05/14 10:11:42;;;;;;;10.85;7.55;;;;;;;11.79;100.00;98719.25;4486898;31;20191;-65
2023/05/14 10:14:17;;;;;;;16.62;8.23;;;;;;;11.81;100.00;98709.44;4501728;31;20106;-65
2023/05/14 10:16:50;;;;;;;13.98;7.60;;;;;;;11.72;100.00;98705.91;4484692;31;20096;-65
2023/05/14 10:19:19;;;;;;;13.40;7.95;;;;;;;11.82;100.00;98692.72;4485882;31;20583;-64
2023/05/14 10:21:52;;;;;;;13.27;8.73;;;;;;;12.06;100.00;98676.41;4485804;31;20096;-64
2023/05/14 10:24:19;;;;;;;14.52;7.53;;;;;;;12.23;100.00;98671.31;4485736;31;20120;-65
2023/05/14 10:26:47;;;;;;;10.52;7.50;;;;;;;12.27;100.00;98667.44;4485616;31;20562;-64
2023/05/14 10:29:15;;;;;;;12.13;7.70;;;;;;;12.20;100.00;98688.22;4484794;32;20100;-64
2023/05/14 10:31:54;;;;;;;11.12;7.30;;;;;;;12.09;100.00;98709.44;4485704;31;20152;-65
2023/05/14 10:34:39;;;;;;;11.10;7.18;;;;;;;11.97;100.00;98705.37;4484982;32;20081;-65
2023/05/14 10:37:10;;;;;;;15.52;7.37;;;;;;;11.92;100.00;98704.97;4485629;32;20136;-64
2023/05/14 10:39:49;;;;;;;10.90;7.50;;;;;;;11.95;100.00;98699.47;4484743;32;20758;-65
2023/05/14 10:42:25;;;;;;;16.98;8.07;;;;;;;11.94;100.00;98698.63;4485557;31;20085;-65
2023/05/14 10:44:57;;;;;;;11.02;6.97;;;;;;;11.78;100.00;98701.03;4485896;31;20081;-65
2023/05/14 10:47:25;;;;;;;11.60;7.25;;;;;;;11.69;100.00;98697.50;4485482;32;20616;-64
2023/05/14 10:49:56;;;;;;;12.27;7.55;;;;;;;11.71;100.00;98696.34;4485797;31;20097;-65
2023/05/14 10:52:24;;;;;;;13.05;7.55;;;;;;;11.67;100.00;98691.56;4483943;32;20088;-65
2023/05/14 10:54:54;;;;;;;12.43;6.75;;;;;;;11.76;100.00;98697.72;4485490;31;20084;-64
2023/05/14 10:57:23;;;;;;;10.50;6.87;;;;;;;11.91;100.00;98698.88;4485518;31;20592;-64
2023/05/14 10:59:58;;;;;;;7.60;5.55;;;;;;;11.90;100.00;98698.06;4485581;31;20176;-65
2023/05/14 11:02:31;;;;;;;10.65;6.70;;;;;;;11.79;100.00;98703.50;4485579;31;20140;-64
2023/05/14 11:05:04;;;;;;;12.93;6.85;;;;;;;11.86;100.00;98691.44;4485329;32;20111;-65
2023/05/14 11:07:43;;;;;;;9.23;6.65;;;;;;;11.65;100.00;98683.00;4485185;32;20110;-65
2023/05/14 11:10:11;;;;;;;12.37;7.12;;;;;;;11.63;100.00;98674.47;4485667;31;20092;-64
2023/05/14 11:12:52;;;;;;;10.70;6.85;;;;;;;11.60;100.00;98680.00;4492702;31;20116;-64
2023/05/14 11:15:24;;;;;;;14.23;7.37;;;;;;;11.62;100.00;98680.69;4493593;31;20453;-64
2023/05/14 11:17:53;;;;;;;13.65;7.55;;;;;;;11.47;100.00;98677.72;4485498;31;20092;-64
2023/05/14 11:20:21;;;;;;;11.57;6.82;;;;;;;11.46;100.00;98679.50;4485533;31;20548;-65
2023/05/14 11:22:50;;;;;;;13.48;7.87;;;;;;;11.50;100.00;98670.38;4485148;31;20148;-65
2023/05/14 11:25:18;;;;;;;11.40;7.25;;;;;;;11.57;100.00;98672.41;4485630;31;20142;-64
2023/05/14 11:27:46;;;;;;;12.10;7.90;;;;;;;11.60;100.00;98683.44;4485222;32;20115;-64
2023/05/14 11:30:18;;;;;;;9.27;7.03;;;;;;;11.59;100.00;98680.97;4485302;31;20108;-64
2023/05/14 11:32:47;;;;;;;12.10;6.95;;;;;;;11.56;100.00;98689.13;4485270;31;20102;-64